Time;durP1;ratioP1;P1;durP2;ratioP2;P2;SDS_P1;SDS_P2;PMS_P1;PMS_P2;Temp;Humidity;BMP_temperature;BMP_pressure;BME280_temperature;BME280_humidity;BME280_pressure;Samples;Min_cycle;Max_cycle;Signal;HPM_P1;HPM_P2
2022/03/30 00:01:42;;;;;;;53.53;20.83;;;;;;;7.59;77.21;100832.38;5048958;28;20036;-34
2022/03/30 00:04:08;;;;;;;52.13;20.67;;;;;;;7.50;77.07;100825.28;5049386;28;20056;-33
2022/03/30 00:06:33;;;;;;;47.63;20.23;;;;;;;7.41;77.24;100838.66;5053190;28;20041;-32
2022/03/30 00:08:58;;;;;;;47.78;20.40;;;;;;;7.41;76.98;100832.47;5052480;28;20388;-31
2022/03/30 00:11:24;;;;;;;41.13;18.88;;;;;;;7.37;76.71;100825.75;5034957;28;20025;-35
2022/03/30 00:13:49;;;;;;;45.95;18.90;;;;;;;7.28;76.79;100832.09;5052653;28;20029;-32
2022/03/30 00:16:14;;;;;;;45.42;18.23;;;;;;;7.23;76.16;100822.69;5053183;28;20079;-34
2022/03/30 00:18:40;;;;;;;43.72;17.50;;;;;;;7.10;76.34;100830.31;5052441;28;20025;-36
2022/03/30 00:21:06;;;;;;;49.50;17.98;;;;;;;7.06;76.74;100823.63;5051790;28;20433;-33
2022/03/30 00:23:31;;;;;;;40.90;18.90;;;;;;;7.04;76.65;100831.78;5052597;28;20040;-35
2022/03/30 00:25:57;;;;;;;43.88;17.27;;;;;;;7.01;76.53;100825.94;5052740;28;20017;-33
2022/03/30 00:28:23;;;;;;;46.67;17.42;;;;;;;6.99;76.13;100823.41;5052178;28;20051;-33
2022/03/30 00:30:49;;;;;;;46.20;16.50;;;;;;;6.97;75.90;100821.88;5053125;28;20094;-33
2022/03/30 00:33:14;;;;;;;40.33;16.75;;;;;;;6.91;76.00;100823.34;5052523;28;20025;-33
2022/03/30 00:35:40;;;;;;;34.97;16.60;;;;;;;6.80;76.12;100821.78;5053245;28;20463;-34
2022/03/30 00:38:05;;;;;;;43.47;16.80;;;;;;;6.80;76.18;100823.63;5052548;28;20020;-37
2022/03/30 00:40:30;;;;;;;44.13;16.67;;;;;;;6.82;76.04;100813.63;5052592;28;20032;-33
2022/03/30 00:42:55;;;;;;;36.10;15.95;;;;;;;6.76;75.75;100809.72;5030559;28;20025;-32
2022/03/30 00:45:23;;;;;;;37.75;15.85;;;;;;;6.72;76.04;100816.41;5043582;28;20029;-35
2022/03/30 00:47:49;;;;;;;39.78;15.68;;;;;;;6.69;76.12;100813.19;5050739;28;20040;-33
2022/03/30 00:50:17;;;;;;;46.70;17.10;;;;;;;6.62;76.31;100810.31;5052417;28;20032;-33
2022/03/30 00:52:43;;;;;;;45.92;16.38;;;;;;;6.63;76.15;100809.31;5052305;28;20029;-33
2022/03/30 00:55:10;;;;;;;42.47;15.02;;;;;;;6.63;76.16;100803.13;5052584;28;20032;-34
2022/03/30 00:57:36;;;;;;;46.20;15.50;;;;;;;6.55;76.26;100814.59;5051967;28;20213;-34
2022/03/30 01:00:04;;;;;;;40.88;16.42;;;;;;;6.53;76.57;100808.56;5050852;28;20086;-32
2022/03/30 01:02:31;;;;;;;;;;;;;;;6.49;76.58;100805.38;5052625;28;20029;-33
2022/03/30 01:04:56;;;;;;;43.58;15.82;;;;;;;6.48;76.56;100797.53;5052003;28;19995;-34
2022/03/30 01:07:22;;;;;;;43.05;15.18;;;;;;;6.44;76.51;100799.66;5050332;28;20384;-35
2022/03/30 01:09:47;;;;;;;41.47;16.15;;;;;;;6.43;76.93;100802.50;5048970;28;20037;-34
2022/03/30 01:12:12;;;;;;;47.30;16.33;;;;;;;6.41;76.91;100796.47;5050689;28;20032;-32
2022/03/30 01:14:39;;;;;;;37.13;15.93;;;;;;;6.36;77.08;100784.38;5051869;28;20103;-33
2022/03/30 01:17:05;;;;;;;46.15;16.40;;;;;;;6.36;76.94;100784.38;5050292;28;20028;-33
2022/03/30 01:19:32;;;;;;;41.50;14.82;;;;;;;6.33;77.04;100784.72;5051438;28;20037;-33
2022/03/30 01:21:59;;;;;;;48.28;16.30;;;;;;;6.23;77.22;100783.13;5051684;28;20056;-33
2022/03/30 01:24:25;;;;;;;40.83;15.57;;;;;;;6.18;77.69;100772.91;5052145;28;20029;-32
2022/03/30 01:26:50;;;;;;;42.50;16.55;;;;;;;6.16;77.52;100774.88;5051627;28;20067;-33
2022/03/30 01:34:44;;;;;;;39.83;16.45;;;;;;;5.96;78.29;100776.91;5049642;28;20044;-34
2022/03/30 01:37:11;;;;;;;45.13;17.05;;;;;;;5.98;78.36;100779.41;5051366;28;20029;-34
2022/03/30 01:39:37;;;;;;;41.42;15.48;;;;;;;5.96;78.32;100776.06;5051139;28;20476;-33
2022/03/30 01:42:03;;;;;;;40.13;16.10;;;;;;;5.90;78.49;100774.81;5050908;28;20032;-33
2022/03/30 01:44:28;;;;;;;55.95;16.60;;;;;;;5.85;78.62;100769.09;5050058;28;20029;-33
2022/03/30 01:46:53;;;;;;;46.38;16.90;;;;;;;5.82;78.65;100764.91;5051358;28;20033;-35
2022/03/30 01:49:21;;;;;;;45.83;17.98;;;;;;;5.79;78.75;100764.34;5051088;28;20472;-33
2022/03/30 01:51:49;;;;;;;44.05;15.85;;;;;;;5.73;78.89;100765.78;5049924;28;20052;-33
2022/03/30 01:54:16;;;;;;;44.47;15.70;;;;;;;5.70;79.09;100764.25;5049662;28;20028;-34
2022/03/30 01:56:41;;;;;;;46.35;16.35;;;;;;;5.67;79.38;100761.06;5049612;28;20045;-32
2022/03/30 01:59:07;;;;;;;40.65;16.70;;;;;;;5.64;79.11;100764.06;5051688;28;20032;-33
2022/03/30 02:01:32;;;;;;;44.63;15.90;;;;;;;5.59;79.21;100756.50;5048959;28;20037;-34
2022/03/30 02:03:58;;;;;;;40.35;16.23;;;;;;;5.54;79.59;100749.94;5037077;28;20025;-33
2022/03/30 02:06:24;;;;;;;47.83;16.42;;;;;;;5.50;79.86;100757.38;5044920;22;20092;-32
2022/03/30 02:08:49;;;;;;;46.67;16.48;;;;;;;5.44;79.95;100747.31;5002399;28;20042;-33
2022/03/30 02:11:15;;;;;;;45.50;15.75;;;;;;;5.44;80.00;100748.16;5010620;28;20093;-32
2022/03/30 02:13:40;;;;;;;44.13;17.20;;;;;;;5.45;79.80;100752.53;5002212;28;20068;-32
2022/03/30 02:16:05;;;;;;;35.25;15.18;;;;;;;5.41;80.35;100750.28;5003344;28;20038;-33
2022/03/30 02:18:31;;;;;;;36.10;15.90;;;;;;;5.43;80.48;100742.97;5010521;28;20122;-32
2022/03/30 02:20:56;;;;;;;49.38;16.10;;;;;;;5.41;80.29;100743.13;5019481;28;20026;-31
2022/03/30 02:23:21;;;;;;;47.22;16.80;;;;;;;5.40;80.37;100743.28;5016884;28;20181;-33
2022/03/30 02:25:47;;;;;;;42.45;15.57;;;;;;;5.37;80.49;100738.22;5000485;28;20517;-32
2022/03/30 02:28:13;;;;;;;45.10;15.90;;;;;;;5.33;80.52;100731.53;5001656;28;20030;-31
2022/03/30 02:30:38;;;;;;;51.95;16.27;;;;;;;5.33;80.96;100732.34;5001184;28;20030;-32
2022/03/30 02:33:03;;;;;;;43.30;16.63;;;;;;;5.29;80.87;100730.97;4997612;28;20026;-33
2022/03/30 02:35:29;;;;;;;45.08;15.60;;;;;;;5.23;81.05;100734.25;4986609;28;20083;-30
2022/03/30 02:37:56;;;;;;;52.00;17.35;;;;;;;5.21;81.31;100726.41;5005578;28;20034;-32
2022/03/30 02:40:22;;;;;;;50.72;16.65;;;;;;;5.15;81.83;100723.50;4998303;28;20027;-31
2022/03/30 02:42:47;;;;;;;40.10;16.15;;;;;;;5.12;82.05;100724.63;4984407;28;20453;-31
2022/03/30 02:45:13;;;;;;;43.75;16.90;;;;;;;5.15;82.02;100718.16;4982005;28;20098;-32
2022/03/30 02:50:22;;;;;;;44.67;17.02;;;;;;;5.05;81.83;100716.41;5020424;28;20045;-32
2022/03/30 02:52:48;;;;;;;44.45;17.10;;;;;;;5.05;82.80;100710.19;5020744;28;20022;-33
2022/03/30 02:55:13;;;;;;;50.60;16.63;;;;;;;5.10;82.31;100704.41;5020888;28;20046;-34
2022/03/30 02:57:40;;;;;;;47.08;16.38;;;;;;;5.14;82.04;100705.81;5019616;28;20052;-33
2022/03/30 03:00:07;;;;;;;43.50;17.23;;;;;;;5.13;81.98;100698.78;5020176;28;20037;-32
2022/03/30 03:02:34;;;;;;;38.47;16.13;;;;;;;5.14;81.97;100703.97;5004541;28;20422;-33
2022/03/30 03:05:00;;;;;;;49.35;16.52;;;;;;;5.14;81.91;100701.31;5001562;28;20010;-32
2022/03/30 03:07:25;;;;;;;42.38;16.13;;;;;;;5.08;81.76;100699.22;5003342;28;20061;-31
2022/03/30 03:09:50;;;;;;;46.33;17.65;;;;;;;5.03;82.29;100705.03;5001900;28;20106;-33
2022/03/30 03:12:16;;;;;;;40.10;16.13;;;;;;;5.10;82.25;100699.91;5019814;28;20034;-32
2022/03/30 03:14:41;;;;;;;51.70;16.83;;;;;;;5.05;81.74;100708.41;5014753;28;20396;-32
2022/03/30 03:17:06;;;;;;;45.17;16.63;;;;;;;4.98;82.10;100711.81;5002164;28;20042;-33
2022/03/30 03:19:32;;;;;;;47.50;16.55;;;;;;;4.97;82.82;100708.28;4999246;28;20463;-31
2022/03/30 03:21:57;;;;;;;44.08;17.75;;;;;;;5.02;82.26;100703.34;5000996;28;20030;-32
2022/03/30 03:24:23;;;;;;;44.72;16.27;;;;;;;5.03;82.06;100705.03;5000797;28;20123;-33
2022/03/30 03:26:50;;;;;;;45.90;17.42;;;;;;;4.96;81.63;100703.94;5001368;28;20042;-31
2022/03/30 03:29:15;;;;;;;42.30;17.48;;;;;;;4.90;82.37;100717.88;5002001;28;20072;-31
2022/03/30 03:31:41;;;;;;;47.00;17.13;;;;;;;4.87;82.49;100710.19;5000316;28;20030;-32
2022/03/30 03:34:06;;;;;;;47.67;17.35;;;;;;;4.88;82.48;100701.19;5000965;28;20026;-31
2022/03/30 03:36:31;;;;;;;47.10;17.23;;;;;;;4.87;82.69;100707.50;5001935;28;20426;-32
2022/03/30 03:38:57;;;;;;;41.33;16.27;;;;;;;4.94;82.95;100689.91;5001575;28;20045;-32
2022/03/30 03:41:22;;;;;;;43.42;17.42;;;;;;;4.99;83.15;100692.97;5002436;28;20478;-32
2022/03/30 03:43:47;;;;;;;41.35;15.85;;;;;;;5.05;82.78;100692.41;5004170;28;20088;-33
2022/03/30 03:46:13;;;;;;;45.97;15.60;;;;;;;5.10;82.41;100691.09;5003442;28;20030;-31
2022/03/30 03:48:38;;;;;;;43.30;18.08;;;;;;;5.18;82.11;100685.84;5017086;28;20030;-32
2022/03/30 03:51:03;;;;;;;42.78;16.17;;;;;;;5.24;81.79;100680.75;5023421;28;20026;-34
2022/03/30 03:53:29;;;;;;;39.55;16.17;;;;;;;5.21;81.82;100675.72;5023566;28;20026;-34
2022/03/30 03:55:54;;;;;;;49.97;17.35;;;;;;;5.19;81.71;100682.19;5024001;28;20067;-34
2022/03/30 03:58:19;;;;;;;45.70;17.15;;;;;;;5.29;81.31;100677.59;5015171;28;20058;-31
2022/03/30 04:00:45;;;;;;;46.67;16.40;;;;;;;5.24;81.35;100685.25;5003731;28;20026;-34
2022/03/30 04:03:10;;;;;;;39.70;16.00;;;;;;;5.26;81.35;100680.59;5008650;28;20026;-31
2022/03/30 04:05:36;;;;;;;47.47;16.92;;;;;;;5.32;81.06;100668.47;5027153;28;20043;-29
2022/03/30 04:08:01;;;;;;;57.13;17.45;;;;;;;5.30;80.38;100667.78;5020815;28;20066;-29
2022/03/30 04:10:26;;;;;;;47.13;17.15;;;;;;;5.27;81.07;100671.59;5004832;28;20037;-32
2022/03/30 04:12:52;;;;;;;48.00;16.80;;;;;;;5.21;80.85;100674.84;5003960;28;20026;-31
2022/03/30 04:15:18;;;;;;;47.22;17.27;;;;;;;5.18;81.39;100669.81;5003128;28;20049;-33
2022/03/30 04:17:45;;;;;;;55.78;18.27;;;;;;;5.17;81.00;100669.00;5003095;28;20357;-31
2022/03/30 04:20:12;;;;;;;48.08;16.42;;;;;;;5.13;81.42;100672.09;4985827;28;20176;-33
2022/03/30 04:22:37;;;;;;;49.33;17.60;;;;;;;5.07;81.01;100669.06;4985266;28;20053;-31
2022/03/30 04:25:04;;;;;;;46.83;17.92;;;;;;;5.02;81.37;100657.16;4984331;28;20051;-31
2022/03/30 04:27:30;;;;;;;43.38;16.95;;;;;;;5.02;81.50;100657.16;4997487;28;20029;-31
2022/03/30 04:29:55;;;;;;;54.55;17.15;;;;;;;4.97;81.66;100651.44;4990849;28;20038;-31
2022/03/30 04:32:20;;;;;;;45.20;17.77;;;;;;;4.92;81.45;100651.88;4984974;28;20134;-32
2022/03/30 04:34:45;;;;;;;44.83;16.23;;;;;;;4.90;81.92;100653.88;4983547;28;20053;-31
2022/03/30 04:37:11;;;;;;;39.63;17.77;;;;;;;4.89;82.06;100654.84;4985981;28;20041;-31
2022/03/30 04:39:36;;;;;;;45.22;17.77;;;;;;;4.85;81.79;100653.47;4985482;28;20039;-31
2022/03/30 04:42:02;;;;;;;51.58;17.77;;;;;;;4.90;81.99;100656.53;4997572;28;20098;-31
2022/03/30 04:44:27;;;;;;;50.75;18.27;;;;;;;4.84;81.97;100651.78;5004373;28;20022;-32
2022/03/30 04:46:53;;;;;;;55.95;17.88;;;;;;;4.79;81.72;100654.06;5007646;28;20408;-31
2022/03/30 04:49:18;;;;;;;48.17;18.17;;;;;;;4.73;82.19;100654.66;5003081;28;20080;-30
2022/03/30 04:51:43;;;;;;;43.92;17.27;;;;;;;4.70;82.42;100654.97;5004471;28;20037;-32
2022/03/30 04:54:09;;;;;;;53.75;19.30;;;;;;;4.66;82.75;100654.44;5007899;28;20097;-32
2022/03/30 04:56:34;;;;;;;55.90;18.92;;;;;;;4.64;82.97;100660.91;4991045;28;20050;-33
2022/03/30 04:59:00;;;;;;;48.78;18.70;;;;;;;4.57;82.80;100656.13;4985056;28;20053;-31
2022/03/30 05:01:25;;;;;;;48.83;16.85;;;;;;;4.64;82.85;100652.91;4991417;28;20056;-33
2022/03/30 05:03:50;;;;;;;46.97;18.35;;;;;;;4.65;82.24;100647.41;5018360;28;20042;-31
2022/03/30 05:06:15;;;;;;;49.83;17.55;;;;;;;4.62;82.50;100642.38;5014119;28;20043;-32
2022/03/30 05:08:41;;;;;;;51.45;17.95;;;;;;;4.61;82.88;100638.88;5021144;28;20034;-32
2022/03/30 05:11:06;;;;;;;45.33;19.50;;;;;;;4.54;82.83;100640.44;5014466;28;20037;-32
2022/03/30 05:13:32;;;;;;;53.95;17.58;;;;;;;4.52;82.76;100629.09;5009364;28;20038;-30
2022/03/30 05:15:57;;;;;;;50.78;19.30;;;;;;;4.53;82.92;100622.78;5005325;28;20320;-32
2022/03/30 05:18:22;;;;;;;54.22;18.58;;;;;;;4.53;83.42;100628.13;5022849;28;20076;-33
2022/03/30 05:20:48;;;;;;;45.55;18.67;;;;;;;4.49;83.35;100636.56;5003658;28;20107;-32
2022/03/30 05:23:13;;;;;;;57.83;19.83;;;;;;;4.49;83.11;100637.38;5012804;28;20026;-32
2022/03/30 05:25:38;;;;;;;56.20;19.65;;;;;;;4.49;83.53;100633.88;5020967;28;20484;-32
2022/03/30 05:28:04;;;;;;;45.15;18.08;;;;;;;4.49;83.21;100642.72;5022361;28;20094;-32
2022/03/30 05:30:30;;;;;;;52.92;18.73;;;;;;;4.48;83.47;100638.38;5022968;28;20041;-31
2022/03/30 05:32:55;;;;;;;52.38;18.42;;;;;;;4.48;83.75;100632.22;5012186;28;20065;-33
2022/03/30 05:35:20;;;;;;;45.95;17.83;;;;;;;4.58;83.75;100636.50;4982092;28;20035;-32
2022/03/30 05:37:48;;;;;;;50.28;18.17;;;;;;;4.57;82.98;100626.00;4982817;28;20282;-32
2022/03/30 05:40:13;;;;;;;54.33;18.40;;;;;;;4.64;82.59;100619.09;5001501;28;20392;-32
2022/03/30 05:42:38;;;;;;;52.00;18.45;;;;;;;4.61;83.30;100622.88;5000407;28;20041;-33
2022/03/30 05:45:04;;;;;;;50.28;18.23;;;;;;;4.73;82.57;100622.69;4983535;28;20084;-33
2022/03/30 05:47:30;;;;;;;52.42;17.05;;;;;;;4.73;82.78;100622.69;4983878;28;20054;-32
2022/03/30 05:49:55;;;;;;;57.22;18.17;;;;;;;4.80;82.59;100621.09;4984660;28;20438;-32
2022/03/30 05:52:21;;;;;;;50.88;18.15;;;;;;;4.88;82.04;100629.19;5000995;28;20102;-32
2022/03/30 05:54:46;;;;;;;48.83;18.60;;;;;;;4.91;81.84;100626.22;5001097;28;20023;-32
2022/03/30 05:57:11;;;;;;;49.85;19.05;;;;;;;5.03;81.23;100630.34;5002030;28;20038;-32
2022/03/30 05:59:39;;;;;;;51.72;18.67;;;;;;;5.17;81.13;100630.81;5013243;28;20046;-30
2022/03/30 06:02:08;;;;;;;47.72;18.42;;;;;;;5.31;80.91;100635.59;4983508;28;20034;-32
2022/03/30 06:04:34;;;;;;;50.60;17.52;;;;;;;5.50;79.98;100635.47;4982683;28;20523;-32
2022/03/30 06:06:59;;;;;;;46.65;17.85;;;;;;;5.58;79.60;100631.16;4989726;28;20563;-32
2022/03/30 06:09:25;;;;;;;44.28;18.17;;;;;;;5.69;79.44;100638.94;5001652;28;20058;-32
2022/03/30 06:11:50;;;;;;;50.83;18.15;;;;;;;5.79;79.02;100637.00;5000952;28;20041;-32
2022/03/30 06:14:16;;;;;;;53.70;19.13;;;;;;;6.01;79.02;100645.53;5002329;28;20101;-31
2022/03/30 06:16:45;;;;;;;64.07;20.25;;;;;;;6.09;78.43;100643.75;5001108;28;20027;-32
2022/03/30 06:19:11;;;;;;;45.55;17.50;;;;;;;6.33;78.09;100635.03;5002625;28;20027;-32
2022/03/30 06:21:36;;;;;;;51.25;18.50;;;;;;;6.51;76.91;100636.78;5000728;28;20529;-31
2022/03/30 06:24:02;;;;;;;48.50;18.38;;;;;;;6.52;76.26;100639.28;5001435;28;20060;-31
2022/03/30 06:26:28;;;;;;;52.40;19.42;;;;;;;6.62;76.12;100644.50;5003241;28;20031;-33
2022/03/30 06:28:54;;;;;;;44.88;19.00;;;;;;;6.76;75.48;100643.06;5003304;28;20144;-33
2022/03/30 06:31:19;;;;;;;57.78;18.02;;;;;;;6.95;74.90;100644.59;5002868;28;20030;-31
2022/03/30 06:33:46;;;;;;;50.80;19.15;;;;;;;7.19;74.59;100639.34;5001203;28;20026;-33
2022/03/30 06:36:11;;;;;;;52.70;18.63;;;;;;;7.38;73.38;100640.03;5000145;28;20026;-32
2022/03/30 06:38:37;;;;;;;43.97;17.95;;;;;;;7.51;72.91;100644.88;4993789;28;20034;-30
2022/03/30 06:41:03;;;;;;;41.22;17.60;;;;;;;7.69;72.29;100646.41;5013214;28;20063;-31
2022/03/30 06:43:29;;;;;;;47.25;17.67;;;;;;;7.83;71.42;100644.88;5044120;28;20016;-32
2022/03/30 06:45:54;;;;;;;50.72;17.48;;;;;;;8.12;70.05;100635.44;5035703;28;20027;-33
2022/03/30 06:48:20;;;;;;;42.22;17.60;;;;;;;8.27;69.54;100638.28;4997795;28;20027;-30
2022/03/30 06:50:46;;;;;;;44.15;17.25;;;;;;;8.66;69.35;100645.53;4995805;28;20080;-33
2022/03/30 06:53:11;;;;;;;47.78;17.33;;;;;;;8.98;67.47;100642.69;5016576;28;20024;-32
2022/03/30 06:55:38;;;;;;;46.10;17.48;;;;;;;9.40;66.08;100644.09;5077817;28;20023;-32
2022/03/30 06:58:04;;;;;;;50.05;17.63;;;;;;;10.01;64.76;100643.25;5012786;28;20072;-31
2022/03/30 07:00:30;;;;;;;42.40;16.88;;;;;;;10.58;62.43;100637.25;5017399;28;20034;-30
2022/03/30 07:02:55;;;;;;;39.60;17.40;;;;;;;10.82;62.11;100629.88;5009139;28;20034;-32
2022/03/30 07:05:20;;;;;;;41.42;16.48;;;;;;;11.56;58.69;100635.03;5019525;28;20022;-32
2022/03/30 07:10:31;;;;;;;41.63;16.92;;;;;;;12.45;56.96;100626.34;5012034;28;20052;-29
2022/03/30 07:12:57;;;;;;;41.72;16.30;;;;;;;12.92;55.36;100639.03;5003623;28;20027;-33
2022/03/30 07:15:22;;;;;;;51.08;16.55;;;;;;;13.29;53.36;100631.47;5011776;28;20109;-31
2022/03/30 07:17:52;;;;;;;56.67;18.10;;;;;;;13.44;52.63;100627.78;5001617;28;20051;-30
2022/03/30 07:20:19;;;;;;;51.35;16.38;;;;;;;13.66;52.53;100631.94;4993231;28;20011;-30
2022/03/30 07:22:47;;;;;;;41.95;16.02;;;;;;;14.15;50.46;100627.97;5006024;28;20015;-29
2022/03/30 07:25:13;;;;;;;;;;;;;;;14.40;49.46;100624.56;5025483;28;20041;-31
2022/03/30 07:27:40;;;;;;;43.35;15.05;;;;;;;14.59;49.07;100615.59;5022243;28;19909;-32
2022/03/30 07:30:07;;;;;;;36.20;15.57;;;;;;;14.78;47.83;100623.88;5036354;28;20082;-31
2022/03/30 07:32:34;;;;;;;34.90;14.60;;;;;;;14.85;48.02;100630.06;5009621;28;20285;-31
2022/03/30 07:34:59;;;;;;;29.40;14.70;;;;;;;15.10;47.66;100622.84;5012215;28;20045;-32
2022/03/30 07:37:25;;;;;;;32.65;13.35;;;;;;;15.29;46.53;100622.97;5021867;28;20034;-30
2022/03/30 07:39:51;;;;;;;29.50;14.20;;;;;;;15.26;46.88;100615.25;5017878;28;20083;-33
2022/03/30 07:42:16;;;;;;;27.33;13.18;;;;;;;15.31;46.55;100618.16;5011034;28;20091;-32
2022/03/30 07:44:41;;;;;;;31.10;13.38;;;;;;;15.05;46.88;100617.25;5009443;28;20065;-31
2022/03/30 07:47:07;;;;;;;25.92;13.35;;;;;;;15.01;47.26;100618.75;5013580;28;20074;-32
2022/03/30 07:49:32;;;;;;;21.63;12.68;;;;;;;15.12;46.96;100612.63;5012217;28;20057;-30
2022/03/30 07:52:00;;;;;;;21.50;11.63;;;;;;;15.42;46.86;100609.31;5011573;28;20119;-30
2022/03/30 07:54:26;;;;;;;21.65;11.95;;;;;;;15.50;46.17;100606.31;5015116;28;20022;-33
2022/03/30 07:56:51;;;;;;;24.73;12.18;;;;;;;15.34;47.24;100610.41;5011973;28;20050;-29
2022/03/30 07:59:16;;;;;;;24.70;12.10;;;;;;;15.32;46.85;100603.53;5002138;28;20090;-30
2022/03/30 08:01:42;;;;;;;18.85;11.02;;;;;;;14.81;47.90;100607.19;5018409;28;20062;-31
2022/03/30 08:04:08;;;;;;;24.33;11.07;;;;;;;14.40;49.25;100613.75;5044237;28;20027;-31
2022/03/30 08:06:34;;;;;;;17.67;9.45;;;;;;;13.77;50.34;100616.94;5017476;28;20113;-30
2022/03/30 08:08:59;;;;;;;15.63;7.28;;;;;;;13.20;51.56;100602.97;5019167;28;20045;-33
2022/03/30 08:11:25;;;;;;;16.45;7.53;;;;;;;12.48;53.90;100605.22;5017780;28;20046;-31
2022/03/30 08:13:50;;;;;;;14.30;8.60;;;;;;;11.69;56.44;100605.50;5010234;28;20026;-30
2022/03/30 08:16:16;;;;;;;15.75;8.20;;;;;;;11.14;58.38;100605.22;5010323;28;20073;-31
2022/03/30 08:18:41;;;;;;;14.75;8.10;;;;;;;10.84;60.17;100609.00;5014439;28;20042;-29
2022/03/30 08:23:50;;;;;;;14.70;8.50;;;;;;;10.88;61.25;100604.91;5010910;28;20053;-30
2022/03/30 08:26:16;;;;;;;17.45;8.63;;;;;;;10.90;61.45;100608.22;5016898;28;20026;-33
2022/03/30 08:28:41;;;;;;;15.52;8.45;;;;;;;10.80;61.60;100605.88;5025501;28;20080;-30
2022/03/30 08:31:06;;;;;;;18.30;9.02;;;;;;;10.65;61.60;100615.81;5017453;28;20326;-30
2022/03/30 08:33:32;;;;;;;17.60;9.80;;;;;;;10.48;62.77;100604.44;5010806;28;20087;-31
2022/03/30 08:35:58;;;;;;;20.85;10.30;;;;;;;10.25;63.88;100607.19;5007530;28;20035;-32
2022/03/30 08:38:23;;;;;;;22.38;10.60;;;;;;;10.03;64.43;100607.09;5008365;28;20064;-31
2022/03/30 08:40:49;;;;;;;19.83;10.90;;;;;;;10.19;65.17;100599.84;5007432;28;20025;-31
2022/03/30 08:43:15;;;;;;;26.42;11.50;;;;;;;10.40;64.34;100596.44;5017345;28;20124;-31
2022/03/30 08:45:41;;;;;;;23.63;10.80;;;;;;;11.10;63.54;100600.38;5011748;28;21270;-32
2022/03/30 08:48:07;;;;;;;29.20;10.25;;;;;;;11.98;59.95;100592.88;5015887;28;20095;-32
2022/03/30 08:50:32;;;;;;;19.00;10.05;;;;;;;12.48;57.05;100590.88;5010137;28;20026;-33
2022/03/30 08:53:02;;;;;;;19.60;9.70;;;;;;;12.40;56.51;100594.59;5075585;28;20453;-31
2022/03/30 08:55:27;;;;;;;20.25;9.90;;;;;;;11.94;57.66;100594.31;5105713;28;20025;-32
2022/03/30 08:57:53;;;;;;;19.27;10.30;;;;;;;11.65;58.93;100580.78;5009292;28;20038;-32
2022/03/30 09:00:20;;;;;;;21.05;10.32;;;;;;;11.40;59.32;100587.59;4998788;28;20038;-32
2022/03/30 09:02:50;;;;;;;20.77;9.55;;;;;;;11.12;60.71;100572.25;5018658;28;20026;-32
2022/03/30 09:05:19;;;;;;;16.58;8.50;;;;;;;11.04;61.50;100580.44;5015613;28;20058;-30
2022/03/30 09:07:49;;;;;;;15.77;8.38;;;;;;;11.33;61.25;100578.66;5002229;28;20042;-31
2022/03/30 09:10:18;;;;;;;17.92;9.10;;;;;;;11.46;59.96;100577.94;5022932;28;20031;-32
2022/03/30 09:12:45;;;;;;;20.30;9.18;;;;;;;11.84;58.97;100578.44;5104354;28;20028;-32
2022/03/30 09:15:11;;;;;;;19.40;8.48;;;;;;;11.89;56.85;100583.28;5021858;28;20034;-31
2022/03/30 09:17:38;;;;;;;14.50;7.82;;;;;;;12.18;56.56;100574.94;5004074;28;20056;-32
2022/03/30 09:20:11;;;;;;;11.60;7.07;;;;;;;12.78;55.36;100575.22;5005899;28;20041;-31
2022/03/30 09:22:41;;;;;;;11.15;6.35;;;;;;;13.20;52.96;100589.44;5096422;28;20142;-29
2022/03/30 09:25:08;;;;;;;9.02;5.43;;;;;;;13.06;53.44;100582.34;5058525;28;20489;-32
2022/03/30 09:27:34;;;;;;;8.18;5.47;;;;;;;12.80;53.97;100586.66;4997511;28;20083;-33
2022/03/30 09:29:59;;;;;;;13.48;5.82;;;;;;;12.39;55.79;100576.72;5004492;28;20345;-33
2022/03/30 09:32:25;;;;;;;10.10;5.47;;;;;;;12.29;55.82;100576.25;5010492;28;20045;-32
2022/03/30 09:34:52;;;;;;;10.93;5.47;;;;;;;12.94;54.79;100574.84;5008837;28;20519;-31
2022/03/30 09:37:18;;;;;;;11.25;5.30;;;;;;;13.73;51.63;100573.28;5020595;28;20025;-32
2022/03/30 09:39:44;;;;;;;9.10;4.60;;;;;;;13.72;50.92;100568.91;5018762;28;20118;-31
2022/03/30 09:42:10;;;;;;;8.38;4.95;;;;;;;13.14;52.09;100577.59;5001066;28;20066;-33
2022/03/30 09:44:49;;;;;;;9.07;4.60;;;;;;;12.80;53.84;100573.16;5006524;28;20048;-32
2022/03/30 09:47:16;;;;;;;7.75;4.50;;;;;;;13.64;51.88;100574.53;5075218;28;20107;-32
2022/03/30 09:49:44;;;;;;;10.35;4.53;;;;;;;14.16;50.90;100561.13;5000980;28;20146;-32
2022/03/30 09:52:11;;;;;;;8.20;4.70;;;;;;;14.57;48.73;100557.28;5000278;28;20030;-32
2022/03/30 09:54:43;;;;;;;11.35;4.95;;;;;;;14.83;48.40;100556.31;5003397;28;20035;-33
2022/03/30 09:57:10;;;;;;;8.10;4.60;;;;;;;15.27;46.67;100546.41;5010557;28;20034;-33
2022/03/30 10:00:15;;;;;;;7.07;4.85;;;;;;;14.86;46.53;100553.16;5003600;28;20123;-33
2022/03/30 10:02:48;;;;;;;8.68;4.65;;;;;;;14.56;47.89;100556.47;5012747;28;20885;-33
2022/03/30 10:05:15;;;;;;;7.68;5.10;;;;;;;14.76;47.68;100542.78;5017445;28;20024;-32
2022/03/30 10:07:41;;;;;;;9.63;6.13;;;;;;;14.94;46.06;100552.91;5000604;28;20076;-34
2022/03/30 10:10:09;;;;;;;9.48;5.38;;;;;;;15.33;45.80;100543.69;5001866;28;20423;-33
2022/03/30 10:12:34;;;;;;;13.88;5.75;;;;;;;14.84;45.98;100547.13;4998497;28;20038;-32
2022/03/30 10:15:00;;;;;;;10.80;5.28;;;;;;;15.20;46.58;100541.06;4993353;28;20027;-32
2022/03/30 10:17:27;;;;;;;9.55;5.68;;;;;;;15.06;45.78;100553.88;4996579;28;20030;-31
2022/03/30 10:19:55;;;;;;;;;;;;;;;14.67;46.27;100546.81;4998398;28;20121;-31
2022/03/30 10:22:23;;;;;;;;;;;;;;;14.45;47.31;100548.94;5003189;28;19910;-31
2022/03/30 10:24:56;;;;;;;12.38;5.57;;;;;;;14.35;47.41;100553.97;5007264;28;20004;-33
2022/03/30 10:27:47;;;;;;;9.52;5.25;;;;;;;13.90;48.59;100543.94;4996478;28;20018;-31
2022/03/30 10:30:13;;;;;;;8.15;5.32;;;;;;;13.92;48.49;100541.81;5013987;28;20350;-33
2022/03/30 10:32:39;;;;;;;8.85;5.32;;;;;;;13.88;49.14;100542.47;4994280;28;20052;-33
2022/03/30 10:35:15;;;;;;;18.27;5.82;;;;;;;14.02;48.97;100549.50;5009855;28;20037;-32
2022/03/30 10:37:57;;;;;;;10.90;5.78;;;;;;;13.93;49.10;100540.81;5003855;28;20101;-32
2022/03/30 10:40:25;;;;;;;9.70;5.53;;;;;;;13.73;49.35;100540.81;5013992;28;20059;-32
2022/03/30 10:42:50;;;;;;;;;;;;;;;13.61;49.91;100535.22;4989451;28;20034;-32
2022/03/30 10:45:27;;;;;;;11.57;5.60;;;;;;;13.64;49.42;100543.94;4990472;28;20381;-32
2022/03/30 10:48:25;;;;;;;12.32;6.40;;;;;;;13.74;48.02;100537.06;4989596;28;20297;-32
2022/03/30 10:51:14;;;;;;;16.90;6.20;;;;;;;13.49;48.50;100538.78;5000510;28;20465;-33
2022/03/30 10:53:49;;;;;;;10.75;6.05;;;;;;;13.02;49.66;100538.69;5032582;28;20031;-33
2022/03/30 10:56:14;;;;;;;15.30;5.88;;;;;;;12.99;50.44;100524.78;5013912;28;20520;-32
2022/03/30 10:58:49;;;;;;;11.02;6.55;;;;;;;12.43;51.54;100521.31;5005597;28;20103;-31
2022/03/30 11:01:18;;;;;;;18.08;7.50;;;;;;;12.80;51.42;100519.13;5002775;28;20097;-33
2022/03/30 11:03:56;;;;;;;11.35;6.70;;;;;;;13.21;48.39;100517.31;4997354;28;20038;-32
2022/03/30 11:06:22;;;;;;;10.75;6.32;;;;;;;13.38;48.44;100511.31;4996231;28;20062;-33
2022/03/30 11:08:51;;;;;;;14.57;6.80;;;;;;;13.71;48.01;100499.63;4997037;28;20049;-33
2022/03/30 11:11:20;;;;;;;15.60;6.07;;;;;;;14.27;47.10;100496.34;5004307;28;20022;-33
2022/03/30 11:13:46;;;;;;;12.27;6.63;;;;;;;14.88;45.92;100494.19;4985261;28;20095;-31
2022/03/30 11:16:11;;;;;;;17.48;6.75;;;;;;;14.81;45.49;100498.81;5068003;28;20040;-32
2022/03/30 11:18:53;;;;;;;13.68;6.40;;;;;;;15.43;44.79;100494.38;5016557;28;20189;-33
2022/03/30 11:21:19;;;;;;;13.70;6.97;;;;;;;14.75;45.44;100494.28;4976835;28;20516;-33
2022/03/30 11:23:55;;;;;;;16.25;7.15;;;;;;;15.53;44.09;100492.00;4996167;28;20048;-32
2022/03/30 11:26:22;;;;;;;11.35;6.18;;;;;;;16.36;41.64;100487.94;5088749;28;20112;-32
2022/03/30 11:28:48;;;;;;;12.77;6.30;;;;;;;16.57;41.26;100491.25;5001367;28;20481;-34